sensor_id;sensor_type;location;lat;lon;timestamp;temperature;humidity
43183;DHT22;28802;38.578;-0.066;2022-09-09T00:06:30;24.70;99.90
43183;DHT22;28802;38.578;-0.066;2022-09-09T00:09:02;24.70;99.90
43183;DHT22;28802;38.578;-0.066;2022-09-09T00:14:27;24.60;99.90
43183;DHT22;28802;38.578;-0.066;2022-09-09T00:17:04;24.70;99.90
43183;DHT22;28802;38.578;-0.066;2022-09-09T00:22:16;24.40;99.90
43183;DHT22;28802;38.578;-0.066;2022-09-09T00:24:53;24.30;99.90
43183;DHT22;28802;38.578;-0.066;2022-09-09T00:27:30;24.30;99.90
43183;DHT22;28802;38.578;-0.066;2022-09-09T00:30:12;24.20;99.90
43183;DHT22;28802;38.578;-0.066;2022-09-09T00:32:38;24.10;99.90
43183;DHT22;28802;38.578;-0.066;2022-09-09T00:38:02;24.10;99.90
43183;DHT22;28802;38.578;-0.066;2022-09-09T00:40:50;24.20;99.90
43183;DHT22;28802;38.578;-0.066;2022-09-09T00:43:28;24.30;99.90
43183;DHT22;28802;38.578;-0.066;2022-09-09T00:48:42;24.30;99.90
43183;DHT22;28802;38.578;-0.066;2022-09-09T00:51:43;24.20;99.90
43183;DHT22;28802;38.578;-0.066;2022-09-09T00:55:20;24.20;99.90
43183;DHT22;28802;38.578;-0.066;2022-09-09T00:57:35;24.10;99.90
43183;DHT22;28802;38.578;-0.066;2022-09-09T01:06:22;23.70;99.90
43183;DHT22;28802;38.578;-0.066;2022-09-09T01:17:20;23.60;99.90
43183;DHT22;28802;38.578;-0.066;2022-09-09T01:20:17;23.70;99.90
43183;DHT22;28802;38.578;-0.066;2022-09-09T01:28:32;23.70;99.90
43183;DHT22;28802;38.578;-0.066;2022-09-09T01:31:06;23.60;99.90
43183;DHT22;28802;38.578;-0.066;2022-09-09T01:33:40;23.50;99.90
43183;DHT22;28802;38.578;-0.066;2022-09-09T01:38:46;23.50;99.90
43183;DHT22;28802;38.578;-0.066;2022-09-09T01:41:13;23.60;99.90
43183;DHT22;28802;38.578;-0.066;2022-09-09T01:44:02;23.60;99.90
43183;DHT22;28802;38.578;-0.066;2022-09-09T01:46:29;23.60;99.90
43183;DHT22;28802;38.578;-0.066;2022-09-09T01:48:56;23.50;99.90
43183;DHT22;28802;38.578;-0.066;2022-09-09T01:51:23;23.40;99.90
43183;DHT22;28802;38.578;-0.066;2022-09-09T01:53:50;23.40;99.90
43183;DHT22;28802;38.578;-0.066;2022-09-09T02:06:55;23.50;99.90
43183;DHT22;28802;38.578;-0.066;2022-09-09T02:09:29;23.50;99.90
43183;DHT22;28802;38.578;-0.066;2022-09-09T02:12:06;23.50;99.90
43183;DHT22;28802;38.578;-0.066;2022-09-09T02:14:50;23.40;99.90
43183;DHT22;28802;38.578;-0.066;2022-09-09T02:17:29;23.40;99.90
43183;DHT22;28802;38.578;-0.066;2022-09-09T02:20:14;23.40;99.90
43183;DHT22;28802;38.578;-0.066;2022-09-09T02:22:54;23.40;99.90
43183;DHT22;28802;38.578;-0.066;2022-09-09T02:25:25;23.50;99.90
43183;DHT22;28802;38.578;-0.066;2022-09-09T02:27:54;23.50;99.90
43183;DHT22;28802;38.578;-0.066;2022-09-09T02:30:21;23.50;99.90
43183;DHT22;28802;38.578;-0.066;2022-09-09T02:32:54;23.50;99.90
43183;DHT22;28802;38.578;-0.066;2022-09-09T02:35:39;23.50;99.90
43183;DHT22;28802;38.578;-0.066;2022-09-09T02:38:09;23.60;99.90
43183;DHT22;28802;38.578;-0.066;2022-09-09T02:40:38;23.50;99.90
43183;DHT22;28802;38.578;-0.066;2022-09-09T02:43:04;23.50;99.90
43183;DHT22;28802;38.578;-0.066;2022-09-09T02:45:41;23.50;99.90
43183;DHT22;28802;38.578;-0.066;2022-09-09T02:48:17;23.50;99.90
43183;DHT22;28802;38.578;-0.066;2022-09-09T02:51:10;23.30;99.90
43183;DHT22;28802;38.578;-0.066;2022-09-09T02:53:48;23.30;99.90
43183;DHT22;28802;38.578;-0.066;2022-09-09T02:56:18;23.20;99.90
43183;DHT22;28802;38.578;-0.066;2022-09-09T02:58:48;23.10;99.90
43183;DHT22;28802;38.578;-0.066;2022-09-09T03:01:15;23.00;99.90
43183;DHT22;28802;38.578;-0.066;2022-09-09T03:03:41;23.10;99.90
43183;DHT22;28802;38.578;-0.066;2022-09-09T03:06:11;23.00;99.90
43183;DHT22;28802;38.578;-0.066;2022-09-09T03:08:38;22.80;99.90
43183;DHT22;28802;38.578;-0.066;2022-09-09T03:11:04;22.80;99.90
43183;DHT22;28802;38.578;-0.066;2022-09-09T03:13:34;22.80;99.90
43183;DHT22;28802;38.578;-0.066;2022-09-09T03:16:00;22.90;99.90
43183;DHT22;28802;38.578;-0.066;2022-09-09T03:18:27;22.90;99.90
43183;DHT22;28802;38.578;-0.066;2022-09-09T03:20:54;22.90;99.90
43183;DHT22;28802;38.578;-0.066;2022-09-09T03:23:20;22.90;99.90
43183;DHT22;28802;38.578;-0.066;2022-09-09T03:25:49;22.80;99.90
43183;DHT22;28802;38.578;-0.066;2022-09-09T03:28:18;22.70;99.90
43183;DHT22;28802;38.578;-0.066;2022-09-09T03:30:45;22.80;99.90
43183;DHT22;28802;38.578;-0.066;2022-09-09T03:33:11;22.70;99.90
43183;DHT22;28802;38.578;-0.066;2022-09-09T03:35:38;22.80;99.90
43183;DHT22;28802;38.578;-0.066;2022-09-09T03:38:05;22.80;99.90
43183;DHT22;28802;38.578;-0.066;2022-09-09T03:40:33;22.70;99.90
43183;DHT22;28802;38.578;-0.066;2022-09-09T03:42:59;22.70;99.90
43183;DHT22;28802;38.578;-0.066;2022-09-09T03:45:25;22.70;99.90
43183;DHT22;28802;38.578;-0.066;2022-09-09T03:47:51;22.70;99.90
43183;DHT22;28802;38.578;-0.066;2022-09-09T03:50:17;22.80;99.90
43183;DHT22;28802;38.578;-0.066;2022-09-09T03:52:45;22.80;99.90
43183;DHT22;28802;38.578;-0.066;2022-09-09T03:55:21;22.80;99.90
43183;DHT22;28802;38.578;-0.066;2022-09-09T03:57:47;22.70;99.90
43183;DHT22;28802;38.578;-0.066;2022-09-09T04:00:14;22.60;99.90
43183;DHT22;28802;38.578;-0.066;2022-09-09T04:02:47;22.70;99.90
43183;DHT22;28802;38.578;-0.066;2022-09-09T04:05:16;22.60;99.90
43183;DHT22;28802;38.578;-0.066;2022-09-09T04:07:44;22.70;99.90
43183;DHT22;28802;38.578;-0.066;2022-09-09T04:10:09;22.70;99.90
43183;DHT22;28802;38.578;-0.066;2022-09-09T04:12:37;22.50;99.90
43183;DHT22;28802;38.578;-0.066;2022-09-09T04:15:04;22.30;99.90
43183;DHT22;28802;38.578;-0.066;2022-09-09T04:17:30;22.20;99.90
43183;DHT22;28802;38.578;-0.066;2022-09-09T04:19:56;22.20;99.90
43183;DHT22;28802;38.578;-0.066;2022-09-09T04:22:23;22.10;99.90
43183;DHT22;28802;38.578;-0.066;2022-09-09T04:24:49;22.20;99.90
43183;DHT22;28802;38.578;-0.066;2022-09-09T04:27:17;22.20;99.90
43183;DHT22;28802;38.578;-0.066;2022-09-09T04:29:43;22.20;99.90
43183;DHT22;28802;38.578;-0.066;2022-09-09T04:32:08;22.30;99.90
43183;DHT22;28802;38.578;-0.066;2022-09-09T04:34:34;22.40;99.90
43183;DHT22;28802;38.578;-0.066;2022-09-09T04:37:00;22.50;99.90
43183;DHT22;28802;38.578;-0.066;2022-09-09T04:39:27;22.50;99.90
43183;DHT22;28802;38.578;-0.066;2022-09-09T04:41:53;22.50;99.90
43183;DHT22;28802;38.578;-0.066;2022-09-09T04:44:21;22.40;99.90
43183;DHT22;28802;38.578;-0.066;2022-09-09T04:46:47;22.10;99.90
43183;DHT22;28802;38.578;-0.066;2022-09-09T04:49:13;22.10;99.90
43183;DHT22;28802;38.578;-0.066;2022-09-09T04:51:39;22.10;99.90
43183;DHT22;28802;38.578;-0.066;2022-09-09T04:54:05;22.00;99.90
43183;DHT22;28802;38.578;-0.066;2022-09-09T04:56:32;22.00;99.90
43183;DHT22;28802;38.578;-0.066;2022-09-09T04:58:59;22.10;99.90
43183;DHT22;28802;38.578;-0.066;2022-09-09T05:01:43;22.10;99.90
43183;DHT22;28802;38.578;-0.066;2022-09-09T05:04:10;22.20;99.90
43183;DHT22;28802;38.578;-0.066;2022-09-09T05:06:36;22.30;99.90
43183;DHT22;28802;38.578;-0.066;2022-09-09T05:09:03;22.30;99.90
43183;DHT22;28802;38.578;-0.066;2022-09-09T05:11:31;22.30;99.90
43183;DHT22;28802;38.578;-0.066;2022-09-09T05:14:09;22.10;99.90
43183;DHT22;28802;38.578;-0.066;2022-09-09T05:16:36;22.10;99.90
43183;DHT22;28802;38.578;-0.066;2022-09-09T05:19:03;22.10;99.90
43183;DHT22;28802;38.578;-0.066;2022-09-09T05:21:40;22.10;99.90
43183;DHT22;28802;38.578;-0.066;2022-09-09T05:24:07;22.10;99.90
43183;DHT22;28802;38.578;-0.066;2022-09-09T05:26:33;22.20;99.90
43183;DHT22;28802;38.578;-0.066;2022-09-09T05:29:01;22.20;99.90
43183;DHT22;28802;38.578;-0.066;2022-09-09T05:31:29;22.20;99.90
43183;DHT22;28802;38.578;-0.066;2022-09-09T05:33:56;22.10;99.90
43183;DHT22;28802;38.578;-0.066;2022-09-09T05:36:22;22.00;99.90
43183;DHT22;28802;38.578;-0.066;2022-09-09T05:38:52;22.10;99.90
43183;DHT22;28802;38.578;-0.066;2022-09-09T05:41:20;22.10;99.90
43183;DHT22;28802;38.578;-0.066;2022-09-09T05:43:46;22.00;99.90
43183;DHT22;28802;38.578;-0.066;2022-09-09T05:46:19;22.10;99.90
43183;DHT22;28802;38.578;-0.066;2022-09-09T05:48:47;22.10;99.90
43183;DHT22;28802;38.578;-0.066;2022-09-09T05:51:23;22.30;99.90
43183;DHT22;28802;38.578;-0.066;2022-09-09T05:53:51;22.30;99.90
43183;DHT22;28802;38.578;-0.066;2022-09-09T05:56:23;22.40;99.90
43183;DHT22;28802;38.578;-0.066;2022-09-09T05:58:52;22.50;99.90
43183;DHT22;28802;38.578;-0.066;2022-09-09T06:01:22;22.80;99.90
43183;DHT22;28802;38.578;-0.066;2022-09-09T06:03:49;23.00;99.90
43183;DHT22;28802;38.578;-0.066;2022-09-09T06:06:18;23.40;99.90
43183;DHT22;28802;38.578;-0.066;2022-09-09T06:08:47;24.00;99.90
43183;DHT22;28802;38.578;-0.066;2022-09-09T06:11:20;24.40;99.90
43183;DHT22;28802;38.578;-0.066;2022-09-09T06:13:46;25.10;99.90
43183;DHT22;28802;38.578;-0.066;2022-09-09T06:16:17;25.60;99.90
43183;DHT22;28802;38.578;-0.066;2022-09-09T06:18:44;25.50;99.90
43183;DHT22;28802;38.578;-0.066;2022-09-09T06:21:22;26.10;99.90
43183;DHT22;28802;38.578;-0.066;2022-09-09T06:23:48;26.80;99.90
43183;DHT22;28802;38.578;-0.066;2022-09-09T06:26:22;27.50;99.90
43183;DHT22;28802;38.578;-0.066;2022-09-09T06:28:52;28.10;99.90
43183;DHT22;28802;38.578;-0.066;2022-09-09T06:31:21;28.80;99.90
43183;DHT22;28802;38.578;-0.066;2022-09-09T06:33:49;28.50;99.90
43183;DHT22;28802;38.578;-0.066;2022-09-09T06:36:23;28.60;99.90
43183;DHT22;28802;38.578;-0.066;2022-09-09T06:38:50;29.00;99.90
43183;DHT22;28802;38.578;-0.066;2022-09-09T06:41:17;29.70;99.90
43183;DHT22;28802;38.578;-0.066;2022-09-09T06:43:45;30.20;99.90
43183;DHT22;28802;38.578;-0.066;2022-09-09T06:46:17;30.00;99.90
43183;DHT22;28802;38.578;-0.066;2022-09-09T06:48:45;30.60;99.90
43183;DHT22;28802;38.578;-0.066;2022-09-09T06:51:20;29.60;99.90
43183;DHT22;28802;38.578;-0.066;2022-09-09T06:53:54;30.40;99.90
43183;DHT22;28802;38.578;-0.066;2022-09-09T06:56:45;30.90;99.90
43183;DHT22;28802;38.578;-0.066;2022-09-09T06:59:20;30.90;99.90
43183;DHT22;28802;38.578;-0.066;2022-09-09T07:01:47;31.60;99.90
43183;DHT22;28802;38.578;-0.066;2022-09-09T07:04:14;32.40;99.90
43183;DHT22;28802;38.578;-0.066;2022-09-09T07:06:44;33.10;99.90
43183;DHT22;28802;38.578;-0.066;2022-09-09T07:09:15;34.00;99.90
43183;DHT22;28802;38.578;-0.066;2022-09-09T07:11:49;34.50;99.90
43183;DHT22;28802;38.578;-0.066;2022-09-09T07:14:18;33.70;99.90
43183;DHT22;28802;38.578;-0.066;2022-09-09T07:16:48;33.20;99.90
43183;DHT22;28802;38.578;-0.066;2022-09-09T07:19:16;33.50;99.90
43183;DHT22;28802;38.578;-0.066;2022-09-09T07:21:43;33.50;99.90
43183;DHT22;28802;38.578;-0.066;2022-09-09T07:24:12;33.50;99.90
43183;DHT22;28802;38.578;-0.066;2022-09-09T07:26:40;33.80;99.90
43183;DHT22;28802;38.578;-0.066;2022-09-09T07:29:07;34.60;99.90
43183;DHT22;28802;38.578;-0.066;2022-09-09T07:31:35;35.30;99.90
43183;DHT22;28802;38.578;-0.066;2022-09-09T07:34:04;35.10;99.90
43183;DHT22;28802;38.578;-0.066;2022-09-09T07:36:32;34.50;99.90
43183;DHT22;28802;38.578;-0.066;2022-09-09T07:39:05;34.30;99.90
43183;DHT22;28802;38.578;-0.066;2022-09-09T07:41:44;34.40;99.90
43183;DHT22;28802;38.578;-0.066;2022-09-09T07:44:14;34.90;99.90
43183;DHT22;28802;38.578;-0.066;2022-09-09T07:46:43;35.80;99.90
43183;DHT22;28802;38.578;-0.066;2022-09-09T07:49:11;35.50;99.90
43183;DHT22;28802;38.578;-0.066;2022-09-09T07:51:40;35.20;99.90
43183;DHT22;28802;38.578;-0.066;2022-09-09T07:54:08;35.60;99.90
43183;DHT22;28802;38.578;-0.066;2022-09-09T07:56:37;33.60;99.90
43183;DHT22;28802;38.578;-0.066;2022-09-09T07:59:05;32.60;99.90
43183;DHT22;28802;38.578;-0.066;2022-09-09T08:01:38;32.60;99.90
43183;DHT22;28802;38.578;-0.066;2022-09-09T08:04:09;32.00;99.90
43183;DHT22;28802;38.578;-0.066;2022-09-09T08:06:38;31.20;99.90
43183;DHT22;28802;38.578;-0.066;2022-09-09T08:09:07;31.80;99.90
43183;DHT22;28802;38.578;-0.066;2022-09-09T08:11:33;31.50;99.90
43183;DHT22;28802;38.578;-0.066;2022-09-09T08:14:00;30.80;99.90
43183;DHT22;28802;38.578;-0.066;2022-09-09T08:16:31;30.70;99.90
43183;DHT22;28802;38.578;-0.066;2022-09-09T08:18:59;30.80;99.90
43183;DHT22;28802;38.578;-0.066;2022-09-09T08:21:30;31.20;99.90
43183;DHT22;28802;38.578;-0.066;2022-09-09T08:23:59;31.00;99.90
43183;DHT22;28802;38.578;-0.066;2022-09-09T08:26:30;30.90;99.90
43183;DHT22;28802;38.578;-0.066;2022-09-09T08:28:58;30.80;99.90
43183;DHT22;28802;38.578;-0.066;2022-09-09T08:31:30;31.20;99.90
43183;DHT22;28802;38.578;-0.066;2022-09-09T08:33:58;30.80;99.90
43183;DHT22;28802;38.578;-0.066;2022-09-09T08:36:27;31.30;99.90
43183;DHT22;28802;38.578;-0.066;2022-09-09T08:38:56;30.60;99.90
43183;DHT22;28802;38.578;-0.066;2022-09-09T08:50:05;31.00;99.90
43183;DHT22;28802;38.578;-0.066;2022-09-09T08:58:09;31.90;99.90
43183;DHT22;28802;38.578;-0.066;2022-09-09T09:09:31;31.50;99.90
43183;DHT22;28802;38.578;-0.066;2022-09-09T09:12:01;32.00;99.90
43183;DHT22;28802;38.578;-0.066;2022-09-09T09:14:35;31.90;99.90
43183;DHT22;28802;38.578;-0.066;2022-09-09T09:17:13;31.90;99.90
43183;DHT22;28802;38.578;-0.066;2022-09-09T09:19:41;31.30;99.90
43183;DHT22;28802;38.578;-0.066;2022-09-09T09:22:20;30.70;99.90
43183;DHT22;28802;38.578;-0.066;2022-09-09T09:27:52;30.70;99.90
43183;DHT22;28802;38.578;-0.066;2022-09-09T09:30:26;30.90;99.90
43183;DHT22;28802;38.578;-0.066;2022-09-09T09:33:00;30.70;99.90
43183;DHT22;28802;38.578;-0.066;2022-09-09T09:35:28;30.70;99.90
43183;DHT22;28802;38.578;-0.066;2022-09-09T09:37:53;31.00;99.90
43183;DHT22;28802;38.578;-0.066;2022-09-09T09:40:21;30.40;99.90
43183;DHT22;28802;38.578;-0.066;2022-09-09T09:42:59;30.40;99.90
43183;DHT22;28802;38.578;-0.066;2022-09-09T09:48:08;30.50;99.90
43183;DHT22;28802;38.578;-0.066;2022-09-09T09:50:48;30.70;99.90
43183;DHT22;28802;38.578;-0.066;2022-09-09T09:53:30;30.30;99.90
43183;DHT22;28802;38.578;-0.066;2022-09-09T09:56:00;30.30;99.90
43183;DHT22;28802;38.578;-0.066;2022-09-09T09:58:33;30.30;99.90
43183;DHT22;28802;38.578;-0.066;2022-09-09T10:01:02;30.30;99.90
43183;DHT22;28802;38.578;-0.066;2022-09-09T10:03:32;30.40;99.90
43183;DHT22;28802;38.578;-0.066;2022-09-09T10:06:00;30.50;99.90
43183;DHT22;28802;38.578;-0.066;2022-09-09T10:08:27;30.20;99.90
43183;DHT22;28802;38.578;-0.066;2022-09-09T10:11:04;30.20;99.90
43183;DHT22;28802;38.578;-0.066;2022-09-09T10:14:01;30.30;99.90
43183;DHT22;28802;38.578;-0.066;2022-09-09T10:19:20;30.20;99.90
43183;DHT22;28802;38.578;-0.066;2022-09-09T10:22:07;30.00;99.90
43183;DHT22;28802;38.578;-0.066;2022-09-09T10:30:31;30.10;99.90
43183;DHT22;28802;38.578;-0.066;2022-09-09T10:33:05;30.60;99.90
43183;DHT22;28802;38.578;-0.066;2022-09-09T10:38:29;30.60;99.90
43183;DHT22;28802;38.578;-0.066;2022-09-09T10:52:09;30.70;99.90
43183;DHT22;28802;38.578;-0.066;2022-09-09T10:55:00;30.80;99.90
43183;DHT22;28802;38.578;-0.066;2022-09-09T10:57:41;31.00;99.90
43183;DHT22;28802;38.578;-0.066;2022-09-09T11:03:00;31.20;99.90
43183;DHT22;28802;38.578;-0.066;2022-09-09T11:05:43;31.40;99.90
43183;DHT22;28802;38.578;-0.066;2022-09-09T11:08:12;31.10;99.90
43183;DHT22;28802;38.578;-0.066;2022-09-09T11:10:48;30.90;99.90
43183;DHT22;28802;38.578;-0.066;2022-09-09T11:19:04;31.40;99.90
43183;DHT22;28802;38.578;-0.066;2022-09-09T11:21:54;30.60;99.90
43183;DHT22;28802;38.578;-0.066;2022-09-09T11:24:40;29.90;99.90
43183;DHT22;28802;38.578;-0.066;2022-09-09T11:27:29;29.60;99.90
43183;DHT22;28802;38.578;-0.066;2022-09-09T11:30:17;29.50;99.90
43183;DHT22;28802;38.578;-0.066;2022-09-09T11:40:32;29.60;99.90
43183;DHT22;28802;38.578;-0.066;2022-09-09T11:43:12;29.60;99.90
43183;DHT22;28802;38.578;-0.066;2022-09-09T11:45:43;29.40;99.90
43183;DHT22;28802;38.578;-0.066;2022-09-09T11:48:37;29.50;99.90
43183;DHT22;28802;38.578;-0.066;2022-09-09T11:53:53;30.60;99.90
43183;DHT22;28802;38.578;-0.066;2022-09-09T11:56:28;31.30;99.90
43183;DHT22;28802;38.578;-0.066;2022-09-09T11:59:20;31.30;99.90
43183;DHT22;28802;38.578;-0.066;2022-09-09T12:02:00;31.30;99.90
43183;DHT22;28802;38.578;-0.066;2022-09-09T12:04:39;29.50;99.90
43183;DHT22;28802;38.578;-0.066;2022-09-09T12:17:25;29.80;99.90
43183;DHT22;28802;38.578;-0.066;2022-09-09T12:20:20;29.80;99.90
43183;DHT22;28802;38.578;-0.066;2022-09-09T12:33:12;29.60;99.90
43183;DHT22;28802;38.578;-0.066;2022-09-09T12:35:39;29.40;99.90
43183;DHT22;28802;38.578;-0.066;2022-09-09T12:38:15;29.00;99.90
43183;DHT22;28802;38.578;-0.066;2022-09-09T12:40:57;28.80;99.90
43183;DHT22;28802;38.578;-0.066;2022-09-09T12:43:25;28.50;99.90
43183;DHT22;28802;38.578;-0.066;2022-09-09T12:46:06;28.40;99.90
43183;DHT22;28802;38.578;-0.066;2022-09-09T12:48:36;28.60;99.90
43183;DHT22;28802;38.578;-0.066;2022-09-09T12:51:19;28.40;99.90
43183;DHT22;28802;38.578;-0.066;2022-09-09T12:53:46;28.30;99.90
43183;DHT22;28802;38.578;-0.066;2022-09-09T12:56:20;28.40;99.90
43183;DHT22;28802;38.578;-0.066;2022-09-09T12:58:50;28.40;99.90
43183;DHT22;28802;38.578;-0.066;2022-09-09T13:03:49;28.40;99.90
43183;DHT22;28802;38.578;-0.066;2022-09-09T13:06:26;28.40;99.90
43183;DHT22;28802;38.578;-0.066;2022-09-09T13:08:53;28.40;99.90
43183;DHT22;28802;38.578;-0.066;2022-09-09T13:11:41;28.30;99.90
43183;DHT22;28802;38.578;-0.066;2022-09-09T13:14:47;28.20;99.90
43183;DHT22;28802;38.578;-0.066;2022-09-09T13:17:15;28.10;99.90
43183;DHT22;28802;38.578;-0.066;2022-09-09T13:19:45;28.20;99.90
43183;DHT22;28802;38.578;-0.066;2022-09-09T13:22:21;28.20;99.90
43183;DHT22;28802;38.578;-0.066;2022-09-09T13:25:40;28.20;99.90
43183;DHT22;28802;38.578;-0.066;2022-09-09T13:28:02;28.30;99.90
43183;DHT22;28802;38.578;-0.066;2022-09-09T13:30:37;28.30;99.90
43183;DHT22;28802;38.578;-0.066;2022-09-09T13:33:21;28.30;99.90
43183;DHT22;28802;38.578;-0.066;2022-09-09T13:35:54;28.60;99.90
43183;DHT22;28802;38.578;-0.066;2022-09-09T13:38:21;28.60;99.90
43183;DHT22;28802;38.578;-0.066;2022-09-09T13:41:02;28.70;99.90
43183;DHT22;28802;38.578;-0.066;2022-09-09T13:43:45;28.80;99.90
43183;DHT22;28802;38.578;-0.066;2022-09-09T13:46:35;28.90;99.90
43183;DHT22;28802;38.578;-0.066;2022-09-09T13:49:18;28.80;99.90
43183;DHT22;28802;38.578;-0.066;2022-09-09T13:51:47;28.90;99.90
43183;DHT22;28802;38.578;-0.066;2022-09-09T13:54:15;29.00;99.90
43183;DHT22;28802;38.578;-0.066;2022-09-09T13:56:42;29.30;99.90
43183;DHT22;28802;38.578;-0.066;2022-09-09T13:59:17;29.20;99.90
43183;DHT22;28802;38.578;-0.066;2022-09-09T14:01:45;28.90;99.90
43183;DHT22;28802;38.578;-0.066;2022-09-09T14:04:12;29.00;99.90
43183;DHT22;28802;38.578;-0.066;2022-09-09T14:06:38;29.30;99.90
43183;DHT22;28802;38.578;-0.066;2022-09-09T14:09:06;29.30;99.90
43183;DHT22;28802;38.578;-0.066;2022-09-09T14:11:32;29.20;99.90
43183;DHT22;28802;38.578;-0.066;2022-09-09T14:13:58;29.20;99.90
43183;DHT22;28802;38.578;-0.066;2022-09-09T14:16:24;29.50;99.90
43183;DHT22;28802;38.578;-0.066;2022-09-09T14:18:51;29.90;99.90
43183;DHT22;28802;38.578;-0.066;2022-09-09T14:21:17;30.20;99.90
43183;DHT22;28802;38.578;-0.066;2022-09-09T14:23:46;30.30;99.90
43183;DHT22;28802;38.578;-0.066;2022-09-09T14:26:15;30.20;99.90
43183;DHT22;28802;38.578;-0.066;2022-09-09T14:28:41;30.10;99.90
43183;DHT22;28802;38.578;-0.066;2022-09-09T14:31:07;30.50;99.90
43183;DHT22;28802;38.578;-0.066;2022-09-09T14:33:33;30.30;99.90
43183;DHT22;28802;38.578;-0.066;2022-09-09T14:36:02;30.20;99.90
43183;DHT22;28802;38.578;-0.066;2022-09-09T14:38:29;30.30;99.90
43183;DHT22;28802;38.578;-0.066;2022-09-09T14:40:56;30.30;99.90
43183;DHT22;28802;38.578;-0.066;2022-09-09T14:43:22;30.60;99.90
43183;DHT22;28802;38.578;-0.066;2022-09-09T14:45:48;30.30;99.90
43183;DHT22;28802;38.578;-0.066;2022-09-09T14:48:14;30.00;99.90
43183;DHT22;28802;38.578;-0.066;2022-09-09T14:50:41;30.20;99.90
43183;DHT22;28802;38.578;-0.066;2022-09-09T14:53:07;30.10;99.90
43183;DHT22;28802;38.578;-0.066;2022-09-09T14:55:34;30.00;99.90
43183;DHT22;28802;38.578;-0.066;2022-09-09T14:58:00;29.70;99.90
43183;DHT22;28802;38.578;-0.066;2022-09-09T15:00:26;29.50;99.90
43183;DHT22;28802;38.578;-0.066;2022-09-09T15:02:55;29.10;99.90
43183;DHT22;28802;38.578;-0.066;2022-09-09T15:05:21;29.00;99.90
43183;DHT22;28802;38.578;-0.066;2022-09-09T15:07:47;29.10;99.90
43183;DHT22;28802;38.578;-0.066;2022-09-09T15:10:17;29.30;99.90
43183;DHT22;28802;38.578;-0.066;2022-09-09T15:12:43;29.40;99.90
43183;DHT22;28802;38.578;-0.066;2022-09-09T15:15:10;29.30;99.90
43183;DHT22;28802;38.578;-0.066;2022-09-09T15:17:36;29.30;99.90
43183;DHT22;28802;38.578;-0.066;2022-09-09T15:20:03;29.40;99.90
43183;DHT22;28802;38.578;-0.066;2022-09-09T15:22:31;29.30;99.90
43183;DHT22;28802;38.578;-0.066;2022-09-09T15:24:57;29.50;99.90
43183;DHT22;28802;38.578;-0.066;2022-09-09T15:27:23;29.40;99.90
43183;DHT22;28802;38.578;-0.066;2022-09-09T15:29:49;29.60;99.90
43183;DHT22;28802;38.578;-0.066;2022-09-09T15:32:17;29.70;99.90
43183;DHT22;28802;38.578;-0.066;2022-09-09T15:34:44;29.70;99.90
43183;DHT22;28802;38.578;-0.066;2022-09-09T15:37:10;29.80;99.90
43183;DHT22;28802;38.578;-0.066;2022-09-09T15:39:39;29.90;99.90
43183;DHT22;28802;38.578;-0.066;2022-09-09T15:42:06;29.60;99.90
43183;DHT22;28802;38.578;-0.066;2022-09-09T15:44:42;29.70;99.90
43183;DHT22;28802;38.578;-0.066;2022-09-09T15:47:11;29.70;99.90
43183;DHT22;28802;38.578;-0.066;2022-09-09T15:49:38;29.40;99.90
43183;DHT22;28802;38.578;-0.066;2022-09-09T15:52:04;29.40;99.90
43183;DHT22;28802;38.578;-0.066;2022-09-09T15:54:36;29.50;99.90
43183;DHT22;28802;38.578;-0.066;2022-09-09T15:57:07;29.30;99.90
43183;DHT22;28802;38.578;-0.066;2022-09-09T15:59:34;29.40;99.90
43183;DHT22;28802;38.578;-0.066;2022-09-09T16:02:00;29.30;99.90
43183;DHT22;28802;38.578;-0.066;2022-09-09T16:04:27;29.50;99.90
43183;DHT22;28802;38.578;-0.066;2022-09-09T16:07:04;29.20;99.90
43183;DHT22;28802;38.578;-0.066;2022-09-09T16:09:31;29.10;99.90
43183;DHT22;28802;38.578;-0.066;2022-09-09T16:11:59;29.10;99.90
43183;DHT22;28802;38.578;-0.066;2022-09-09T16:14:26;29.00;99.90
43183;DHT22;28802;38.578;-0.066;2022-09-09T16:16:53;29.10;99.90
43183;DHT22;28802;38.578;-0.066;2022-09-09T16:19:19;29.00;99.90
43183;DHT22;28802;38.578;-0.066;2022-09-09T16:21:47;28.80;99.90
43183;DHT22;28802;38.578;-0.066;2022-09-09T16:24:15;28.70;99.90
43183;DHT22;28802;38.578;-0.066;2022-09-09T16:26:43;28.60;99.90
43183;DHT22;28802;38.578;-0.066;2022-09-09T16:29:13;28.60;99.90
43183;DHT22;28802;38.578;-0.066;2022-09-09T16:31:40;28.60;99.90
43183;DHT22;28802;38.578;-0.066;2022-09-09T16:34:06;28.60;99.90
43183;DHT22;28802;38.578;-0.066;2022-09-09T16:36:34;28.80;99.90
43183;DHT22;28802;38.578;-0.066;2022-09-09T16:39:03;28.80;99.90
43183;DHT22;28802;38.578;-0.066;2022-09-09T16:41:30;28.70;99.90
43183;DHT22;28802;38.578;-0.066;2022-09-09T16:44:05;28.70;99.90
43183;DHT22;28802;38.578;-0.066;2022-09-09T16:46:34;28.60;99.90
43183;DHT22;28802;38.578;-0.066;2022-09-09T16:49:02;28.50;99.90
43183;DHT22;28802;38.578;-0.066;2022-09-09T16:51:46;28.60;99.90
43183;DHT22;28802;38.578;-0.066;2022-09-09T16:54:13;28.60;99.90
43183;DHT22;28802;38.578;-0.066;2022-09-09T16:56:44;28.50;99.90
43183;DHT22;28802;38.578;-0.066;2022-09-09T16:59:15;28.50;99.90
43183;DHT22;28802;38.578;-0.066;2022-09-09T17:01:43;28.30;99.90
43183;DHT22;28802;38.578;-0.066;2022-09-09T17:04:12;28.30;99.90
43183;DHT22;28802;38.578;-0.066;2022-09-09T17:06:39;28.20;99.90
43183;DHT22;28802;38.578;-0.066;2022-09-09T17:09:10;28.20;99.90
43183;DHT22;28802;38.578;-0.066;2022-09-09T17:11:37;28.20;99.90
43183;DHT22;28802;38.578;-0.066;2022-09-09T17:14:04;28.20;99.90
43183;DHT22;28802;38.578;-0.066;2022-09-09T17:16:32;28.30;99.90
43183;DHT22;28802;38.578;-0.066;2022-09-09T17:19:00;28.40;99.90
43183;DHT22;28802;38.578;-0.066;2022-09-09T17:21:28;28.40;99.90
43183;DHT22;28802;38.578;-0.066;2022-09-09T17:23:55;28.50;99.90
43183;DHT22;28802;38.578;-0.066;2022-09-09T17:26:24;28.50;99.90
43183;DHT22;28802;38.578;-0.066;2022-09-09T17:28:52;28.40;99.90
43183;DHT22;28802;38.578;-0.066;2022-09-09T17:31:18;28.30;99.90
43183;DHT22;28802;38.578;-0.066;2022-09-09T17:33:46;28.20;99.90
43183;DHT22;28802;38.578;-0.066;2022-09-09T17:38:52;28.20;99.90
43183;DHT22;28802;38.578;-0.066;2022-09-09T17:41:24;28.30;99.90
43183;DHT22;28802;38.578;-0.066;2022-09-09T17:43:51;28.40;99.90
43183;DHT22;28802;38.578;-0.066;2022-09-09T17:46:21;28.60;99.90
43183;DHT22;28802;38.578;-0.066;2022-09-09T17:48:54;28.60;99.90
43183;DHT22;28802;38.578;-0.066;2022-09-09T17:51:23;28.60;99.90
43183;DHT22;28802;38.578;-0.066;2022-09-09T17:53:51;28.40;99.90
43183;DHT22;28802;38.578;-0.066;2022-09-09T17:56:20;28.40;99.90
43183;DHT22;28802;38.578;-0.066;2022-09-09T17:58:49;28.30;99.90
43183;DHT22;28802;38.578;-0.066;2022-09-09T18:01:18;28.20;99.90
43183;DHT22;28802;38.578;-0.066;2022-09-09T18:03:46;28.20;99.90
43183;DHT22;28802;38.578;-0.066;2022-09-09T18:06:19;28.20;99.90